sensor_id;sensor_type;location;lat;lon;timestamp;P1;durP1;ratioP1;P2;durP2;ratioP2
45684;SDS011;46836;48.388;16.210;2023-09-19T00:00:35;1.40;;;1.10;;
45684;SDS011;46836;48.388;16.210;2023-09-19T00:03:03;1.23;;;0.90;;
45684;SDS011;46836;48.388;16.210;2023-09-19T00:05:36;1.83;;;1.23;;
45684;SDS011;46836;48.388;16.210;2023-09-19T00:08:12;1.60;;;1.03;;
45684;SDS011;46836;48.388;16.210;2023-09-19T00:10:42;2.70;;;1.23;;
45684;SDS011;46836;48.388;16.210;2023-09-19T00:13:10;1.40;;;1.20;;
45684;SDS011;46836;48.388;16.210;2023-09-19T00:15:46;1.50;;;1.10;;
45684;SDS011;46836;48.388;16.210;2023-09-19T00:18:18;2.30;;;0.93;;
45684;SDS011;46836;48.388;16.210;2023-09-19T00:20:49;1.20;;;1.10;;
45684;SDS011;46836;48.388;16.210;2023-09-19T00:23:19;1.43;;;1.20;;
45684;SDS011;46836;48.388;16.210;2023-09-19T00:25:47;2.40;;;1.40;;
45684;SDS011;46836;48.388;16.210;2023-09-19T00:28:15;1.57;;;1.30;;
45684;SDS011;46836;48.388;16.210;2023-09-19T00:30:44;1.93;;;1.30;;
45684;SDS011;46836;48.388;16.210;2023-09-19T00:33:12;1.47;;;1.23;;
45684;SDS011;46836;48.388;16.210;2023-09-19T00:35:49;1.87;;;0.90;;
45684;SDS011;46836;48.388;16.210;2023-09-19T00:38:17;2.70;;;1.03;;
45684;SDS011;46836;48.388;16.210;2023-09-19T00:40:48;1.67;;;1.00;;
45684;SDS011;46836;48.388;16.210;2023-09-19T00:43:17;1.13;;;0.80;;
45684;SDS011;46836;48.388;16.210;2023-09-19T00:45:45;1.30;;;1.00;;
45684;SDS011;46836;48.388;16.210;2023-09-19T00:48:18;1.60;;;1.00;;
45684;SDS011;46836;48.388;16.210;2023-09-19T00:50:48;8.23;;;1.03;;
45684;SDS011;46836;48.388;16.210;2023-09-19T00:53:17;1.00;;;0.80;;
45684;SDS011;46836;48.388;16.210;2023-09-19T00:55:46;1.40;;;0.70;;
45684;SDS011;46836;48.388;16.210;2023-09-19T00:58:16;1.87;;;1.00;;
45684;SDS011;46836;48.388;16.210;2023-09-19T01:00:44;1.77;;;1.03;;
45684;SDS011;46836;48.388;16.210;2023-09-19T01:03:13;1.27;;;0.73;;
45684;SDS011;46836;48.388;16.210;2023-09-19T01:05:41;2.60;;;0.60;;
45684;SDS011;46836;48.388;16.210;2023-09-19T01:08:09;0.70;;;0.57;;
45684;SDS011;46836;48.388;16.210;2023-09-19T01:10:40;1.20;;;0.70;;
45684;SDS011;46836;48.388;16.210;2023-09-19T01:19:22;1.70;;;0.70;;
45684;SDS011;46836;48.388;16.210;2023-09-19T01:21:57;2.23;;;0.70;;
45684;SDS011;46836;48.388;16.210;2023-09-19T01:29:47;2.13;;;0.70;;
45684;SDS011;46836;48.388;16.210;2023-09-19T01:32:17;0.90;;;0.67;;
45684;SDS011;46836;48.388;16.210;2023-09-19T01:34:55;2.30;;;0.97;;
45684;SDS011;46836;48.388;16.210;2023-09-19T01:37:25;1.50;;;0.90;;
45684;SDS011;46836;48.388;16.210;2023-09-19T01:39:58;1.90;;;0.83;;
45684;SDS011;46836;48.388;16.210;2023-09-19T01:42:35;5.40;;;0.87;;
45684;SDS011;46836;48.388;16.210;2023-09-19T01:45:13;2.53;;;0.63;;
45684;SDS011;46836;48.388;16.210;2023-09-19T01:47:52;1.63;;;0.97;;
45684;SDS011;46836;48.388;16.210;2023-09-19T01:53:10;3.53;;;0.97;;
45684;SDS011;46836;48.388;16.210;2023-09-19T01:56:04;2.30;;;1.07;;
45684;SDS011;46836;48.388;16.210;2023-09-19T01:58:41;1.43;;;0.93;;
45684;SDS011;46836;48.388;16.210;2023-09-19T02:01:15;1.60;;;0.80;;
45684;SDS011;46836;48.388;16.210;2023-09-19T02:03:47;1.30;;;1.00;;
45684;SDS011;46836;48.388;16.210;2023-09-19T02:06:17;1.30;;;0.70;;
45684;SDS011;46836;48.388;16.210;2023-09-19T02:08:45;2.47;;;0.90;;
45684;SDS011;46836;48.388;16.210;2023-09-19T02:11:13;1.30;;;0.63;;
45684;SDS011;46836;48.388;16.210;2023-09-19T02:13:41;1.70;;;0.87;;
45684;SDS011;46836;48.388;16.210;2023-09-19T02:16:09;1.70;;;1.00;;
45684;SDS011;46836;48.388;16.210;2023-09-19T02:18:38;1.87;;;1.03;;
45684;SDS011;46836;48.388;16.210;2023-09-19T02:21:05;1.90;;;0.60;;
45684;SDS011;46836;48.388;16.210;2023-09-19T02:23:33;1.50;;;0.60;;
45684;SDS011;46836;48.388;16.210;2023-09-19T02:26:00;1.27;;;0.77;;
45684;SDS011;46836;48.388;16.210;2023-09-19T02:28:27;1.73;;;0.90;;
45684;SDS011;46836;48.388;16.210;2023-09-19T02:30:58;1.70;;;0.80;;
45684;SDS011;46836;48.388;16.210;2023-09-19T02:33:26;1.47;;;1.00;;
45684;SDS011;46836;48.388;16.210;2023-09-19T02:35:56;2.30;;;0.70;;
45684;SDS011;46836;48.388;16.210;2023-09-19T02:38:28;3.37;;;0.80;;
45684;SDS011;46836;48.388;16.210;2023-09-19T02:40:55;3.20;;;1.10;;
45684;SDS011;46836;48.388;16.210;2023-09-19T02:43:23;1.90;;;0.77;;
45684;SDS011;46836;48.388;16.210;2023-09-19T02:45:51;1.33;;;0.80;;
45684;SDS011;46836;48.388;16.210;2023-09-19T02:48:21;1.40;;;0.80;;
45684;SDS011;46836;48.388;16.210;2023-09-19T02:50:51;2.90;;;0.90;;
45684;SDS011;46836;48.388;16.210;2023-09-19T02:53:19;2.60;;;1.27;;
45684;SDS011;46836;48.388;16.210;2023-09-19T02:55:46;3.30;;;1.10;;
45684;SDS011;46836;48.388;16.210;2023-09-19T02:58:15;2.87;;;0.93;;
45684;SDS011;46836;48.388;16.210;2023-09-19T03:00:42;0.80;;;0.70;;
45684;SDS011;46836;48.388;16.210;2023-09-19T03:03:14;3.30;;;1.30;;
45684;SDS011;46836;48.388;16.210;2023-09-19T03:05:42;2.80;;;1.20;;
45684;SDS011;46836;48.388;16.210;2023-09-19T03:08:15;2.60;;;1.03;;
45684;SDS011;46836;48.388;16.210;2023-09-19T03:10:46;2.87;;;1.07;;
45684;SDS011;46836;48.388;16.210;2023-09-19T03:13:15;2.10;;;1.00;;
45684;SDS011;46836;48.388;16.210;2023-09-19T03:15:42;2.83;;;1.40;;
45684;SDS011;46836;48.388;16.210;2023-09-19T03:18:14;3.20;;;1.20;;
45684;SDS011;46836;48.388;16.210;2023-09-19T03:20:41;1.33;;;1.00;;
45684;SDS011;46836;48.388;16.210;2023-09-19T03:23:08;2.43;;;1.30;;
45684;SDS011;46836;48.388;16.210;2023-09-19T03:25:36;1.80;;;1.23;;
45684;SDS011;46836;48.388;16.210;2023-09-19T03:28:03;5.00;;;1.10;;
45684;SDS011;46836;48.388;16.210;2023-09-19T03:30:32;1.60;;;1.17;;
45684;SDS011;46836;48.388;16.210;2023-09-19T03:33:00;2.50;;;1.20;;
45684;SDS011;46836;48.388;16.210;2023-09-19T03:35:28;3.50;;;1.30;;
45684;SDS011;46836;48.388;16.210;2023-09-19T03:37:55;2.87;;;1.10;;
45684;SDS011;46836;48.388;16.210;2023-09-19T03:40:22;2.90;;;1.40;;
45684;SDS011;46836;48.388;16.210;2023-09-19T03:42:52;2.80;;;1.23;;
45684;SDS011;46836;48.388;16.210;2023-09-19T03:45:19;2.87;;;1.30;;
45684;SDS011;46836;48.388;16.210;2023-09-19T03:47:46;1.83;;;1.07;;
45684;SDS011;46836;48.388;16.210;2023-09-19T03:50:16;2.40;;;1.47;;
45684;SDS011;46836;48.388;16.210;2023-09-19T03:52:44;2.70;;;1.40;;
45684;SDS011;46836;48.388;16.210;2023-09-19T03:55:12;1.97;;;1.37;;
45684;SDS011;46836;48.388;16.210;2023-09-19T03:57:39;3.57;;;1.57;;
45684;SDS011;46836;48.388;16.210;2023-09-19T04:00:07;4.00;;;1.83;;
45684;SDS011;46836;48.388;16.210;2023-09-19T04:02:39;3.37;;;1.90;;
45684;SDS011;46836;48.388;16.210;2023-09-19T04:05:06;4.17;;;1.73;;
45684;SDS011;46836;48.388;16.210;2023-09-19T04:07:34;2.47;;;1.70;;
45684;SDS011;46836;48.388;16.210;2023-09-19T04:10:01;2.80;;;1.60;;
45684;SDS011;46836;48.388;16.210;2023-09-19T04:12:29;3.77;;;2.03;;
45684;SDS011;46836;48.388;16.210;2023-09-19T04:14:57;3.13;;;2.27;;
45684;SDS011;46836;48.388;16.210;2023-09-19T04:17:26;2.87;;;2.40;;
45684;SDS011;46836;48.388;16.210;2023-09-19T04:19:53;6.30;;;2.90;;
45684;SDS011;46836;48.388;16.210;2023-09-19T04:22:20;3.17;;;2.20;;
45684;SDS011;46836;48.388;16.210;2023-09-19T04:24:47;4.10;;;2.40;;
45684;SDS011;46836;48.388;16.210;2023-09-19T04:27:16;3.27;;;2.73;;
45684;SDS011;46836;48.388;16.210;2023-09-19T04:29:43;5.03;;;2.60;;
45684;SDS011;46836;48.388;16.210;2023-09-19T04:32:11;2.97;;;2.50;;
45684;SDS011;46836;48.388;16.210;2023-09-19T04:34:39;6.00;;;2.40;;
45684;SDS011;46836;48.388;16.210;2023-09-19T04:37:07;3.47;;;2.57;;
45684;SDS011;46836;48.388;16.210;2023-09-19T04:39:34;3.90;;;2.50;;
45684;SDS011;46836;48.388;16.210;2023-09-19T04:42:02;3.40;;;2.47;;
45684;SDS011;46836;48.388;16.210;2023-09-19T04:44:30;4.33;;;2.50;;
45684;SDS011;46836;48.388;16.210;2023-09-19T04:46:57;4.10;;;2.47;;
45684;SDS011;46836;48.388;16.210;2023-09-19T04:49:26;2.97;;;2.70;;
45684;SDS011;46836;48.388;16.210;2023-09-19T04:51:53;2.73;;;2.53;;
45684;SDS011;46836;48.388;16.210;2023-09-19T04:54:22;6.50;;;2.80;;
45684;SDS011;46836;48.388;16.210;2023-09-19T04:56:49;5.03;;;2.40;;
45684;SDS011;46836;48.388;16.210;2023-09-19T04:59:16;5.63;;;2.20;;
45684;SDS011;46836;48.388;16.210;2023-09-19T05:01:43;3.03;;;2.60;;
45684;SDS011;46836;48.388;16.210;2023-09-19T05:04:10;2.60;;;2.40;;
45684;SDS011;46836;48.388;16.210;2023-09-19T05:06:38;2.60;;;2.40;;
45684;SDS011;46836;48.388;16.210;2023-09-19T05:09:05;3.07;;;2.50;;
45684;SDS011;46836;48.388;16.210;2023-09-19T05:11:32;5.30;;;3.40;;
45684;SDS011;46836;48.388;16.210;2023-09-19T05:13:59;7.10;;;2.67;;
45684;SDS011;46836;48.388;16.210;2023-09-19T05:16:30;4.50;;;3.07;;
45684;SDS011;46836;48.388;16.210;2023-09-19T05:19:00;4.60;;;3.13;;
45684;SDS011;46836;48.388;16.210;2023-09-19T05:21:28;2.87;;;2.50;;
45684;SDS011;46836;48.388;16.210;2023-09-19T05:23:57;4.50;;;2.50;;
45684;SDS011;46836;48.388;16.210;2023-09-19T05:26:24;4.47;;;2.70;;
45684;SDS011;46836;48.388;16.210;2023-09-19T05:28:51;4.20;;;2.80;;
45684;SDS011;46836;48.388;16.210;2023-09-19T05:31:19;3.13;;;2.80;;
45684;SDS011;46836;48.388;16.210;2023-09-19T05:33:47;5.07;;;2.70;;
45684;SDS011;46836;48.388;16.210;2023-09-19T05:36:14;4.47;;;2.97;;
45684;SDS011;46836;48.388;16.210;2023-09-19T05:38:43;7.30;;;3.03;;
45684;SDS011;46836;48.388;16.210;2023-09-19T05:41:11;3.60;;;3.10;;
45684;SDS011;46836;48.388;16.210;2023-09-19T05:43:40;2.77;;;2.50;;
45684;SDS011;46836;48.388;16.210;2023-09-19T05:46:08;2.87;;;2.33;;
45684;SDS011;46836;48.388;16.210;2023-09-19T05:48:36;4.37;;;2.67;;
45684;SDS011;46836;48.388;16.210;2023-09-19T05:51:03;2.10;;;2.00;;
45684;SDS011;46836;48.388;16.210;2023-09-19T05:53:31;3.33;;;2.20;;
45684;SDS011;46836;48.388;16.210;2023-09-19T05:55:58;3.20;;;2.50;;
45684;SDS011;46836;48.388;16.210;2023-09-19T05:58:27;6.23;;;2.37;;
45684;SDS011;46836;48.388;16.210;2023-09-19T06:00:55;5.80;;;3.20;;
45684;SDS011;46836;48.388;16.210;2023-09-19T06:03:24;3.27;;;2.70;;
45684;SDS011;46836;48.388;16.210;2023-09-19T06:05:51;3.50;;;2.47;;
45684;SDS011;46836;48.388;16.210;2023-09-19T06:08:19;7.47;;;3.17;;
45684;SDS011;46836;48.388;16.210;2023-09-19T06:10:46;4.00;;;2.87;;
45684;SDS011;46836;48.388;16.210;2023-09-19T06:13:13;3.17;;;2.53;;
45684;SDS011;46836;48.388;16.210;2023-09-19T06:15:41;6.93;;;2.20;;
45684;SDS011;46836;48.388;16.210;2023-09-19T06:18:10;3.47;;;2.50;;
45684;SDS011;46836;48.388;16.210;2023-09-19T06:20:41;5.07;;;2.47;;
45684;SDS011;46836;48.388;16.210;2023-09-19T06:23:11;2.67;;;2.30;;
45684;SDS011;46836;48.388;16.210;2023-09-19T06:25:38;4.20;;;2.40;;
45684;SDS011;46836;48.388;16.210;2023-09-19T06:28:07;5.40;;;3.20;;
45684;SDS011;46836;48.388;16.210;2023-09-19T06:30:38;6.20;;;2.83;;
45684;SDS011;46836;48.388;16.210;2023-09-19T06:33:09;2.60;;;2.37;;
45684;SDS011;46836;48.388;16.210;2023-09-19T06:35:39;4.03;;;2.57;;
45684;SDS011;46836;48.388;16.210;2023-09-19T06:38:08;2.30;;;2.10;;
45684;SDS011;46836;48.388;16.210;2023-09-19T06:40:35;5.83;;;2.90;;
45684;SDS011;46836;48.388;16.210;2023-09-19T06:43:03;2.90;;;1.90;;
45684;SDS011;46836;48.388;16.210;2023-09-19T06:45:32;4.30;;;2.40;;
45684;SDS011;46836;48.388;16.210;2023-09-19T06:47:59;4.03;;;2.23;;
45684;SDS011;46836;48.388;16.210;2023-09-19T06:50:27;6.90;;;2.00;;
45684;SDS011;46836;48.388;16.210;2023-09-19T06:52:54;3.17;;;2.07;;
45684;SDS011;46836;48.388;16.210;2023-09-19T06:55:24;29.57;;;11.23;;
45684;SDS011;46836;48.388;16.210;2023-09-19T06:57:55;22.47;;;9.30;;
45684;SDS011;46836;48.388;16.210;2023-09-19T07:00:22;4.37;;;2.70;;
45684;SDS011;46836;48.388;16.210;2023-09-19T07:05:25;12.13;;;4.13;;
45684;SDS011;46836;48.388;16.210;2023-09-19T07:07:54;8.33;;;3.03;;
45684;SDS011;46836;48.388;16.210;2023-09-19T07:10:22;4.57;;;2.47;;
45684;SDS011;46836;48.388;16.210;2023-09-19T07:12:57;19.07;;;7.20;;
45684;SDS011;46836;48.388;16.210;2023-09-19T07:15:25;5.63;;;3.37;;
45684;SDS011;46836;48.388;16.210;2023-09-19T07:17:53;12.10;;;5.30;;
45684;SDS011;46836;48.388;16.210;2023-09-19T07:20:23;9.83;;;3.80;;
45684;SDS011;46836;48.388;16.210;2023-09-19T07:22:58;7.40;;;4.03;;
45684;SDS011;46836;48.388;16.210;2023-09-19T07:25:29;5.73;;;3.30;;
45684;SDS011;46836;48.388;16.210;2023-09-19T07:27:58;24.37;;;5.10;;
45684;SDS011;46836;48.388;16.210;2023-09-19T07:30:28;47.20;;;6.20;;
45684;SDS011;46836;48.388;16.210;2023-09-19T07:32:56;9.03;;;2.53;;
45684;SDS011;46836;48.388;16.210;2023-09-19T07:35:23;13.60;;;3.00;;
45684;SDS011;46836;48.388;16.210;2023-09-19T07:37:52;7.30;;;2.17;;
45684;SDS011;46836;48.388;16.210;2023-09-19T07:40:19;9.13;;;3.10;;
45684;SDS011;46836;48.388;16.210;2023-09-19T07:42:50;83.47;;;21.57;;
45684;SDS011;46836;48.388;16.210;2023-09-19T07:45:17;150.40;;;32.50;;
45684;SDS011;46836;48.388;16.210;2023-09-19T07:47:48;54.70;;;17.43;;
45684;SDS011;46836;48.388;16.210;2023-09-19T07:50:17;47.93;;;15.30;;
45684;SDS011;46836;48.388;16.210;2023-09-19T07:52:46;5.67;;;3.63;;
45684;SDS011;46836;48.388;16.210;2023-09-19T07:55:14;31.00;;;9.17;;
45684;SDS011;46836;48.388;16.210;2023-09-19T07:57:46;7.43;;;3.57;;
45684;SDS011;46836;48.388;16.210;2023-09-19T08:00:13;6.97;;;3.60;;
45684;SDS011;46836;48.388;16.210;2023-09-19T08:02:41;13.23;;;3.67;;
45684;SDS011;46836;48.388;16.210;2023-09-19T08:05:10;6.07;;;3.40;;
45684;SDS011;46836;48.388;16.210;2023-09-19T08:07:42;5.83;;;3.00;;
45684;SDS011;46836;48.388;16.210;2023-09-19T08:10:15;11.53;;;4.13;;
45684;SDS011;46836;48.388;16.210;2023-09-19T08:12:46;12.97;;;4.30;;
45684;SDS011;46836;48.388;16.210;2023-09-19T08:15:18;4.23;;;2.80;;
45684;SDS011;46836;48.388;16.210;2023-09-19T08:17:47;5.47;;;2.63;;
45684;SDS011;46836;48.388;16.210;2023-09-19T08:20:15;5.63;;;3.40;;
45684;SDS011;46836;48.388;16.210;2023-09-19T08:22:46;9.87;;;3.10;;
45684;SDS011;46836;48.388;16.210;2023-09-19T08:25:23;5.93;;;3.10;;
45684;SDS011;46836;48.388;16.210;2023-09-19T08:27:54;2.60;;;2.40;;
45684;SDS011;46836;48.388;16.210;2023-09-19T08:30:26;3.87;;;3.27;;
45684;SDS011;46836;48.388;16.210;2023-09-19T08:33:00;5.37;;;3.07;;
45684;SDS011;46836;48.388;16.210;2023-09-19T08:35:27;4.77;;;3.00;;
45684;SDS011;46836;48.388;16.210;2023-09-19T08:37:55;6.90;;;2.90;;
45684;SDS011;46836;48.388;16.210;2023-09-19T08:40:23;9.23;;;2.90;;
45684;SDS011;46836;48.388;16.210;2023-09-19T08:42:52;5.70;;;2.80;;
45684;SDS011;46836;48.388;16.210;2023-09-19T08:45:21;21.60;;;4.60;;
45684;SDS011;46836;48.388;16.210;2023-09-19T08:48:16;3.50;;;2.83;;
45684;SDS011;46836;48.388;16.210;2023-09-19T08:51:03;3.90;;;2.43;;
45684;SDS011;46836;48.388;16.210;2023-09-19T08:53:42;6.73;;;2.70;;
45684;SDS011;46836;48.388;16.210;2023-09-19T08:56:32;6.80;;;2.40;;
45684;SDS011;46836;48.388;16.210;2023-09-19T08:59:03;4.17;;;2.10;;
45684;SDS011;46836;48.388;16.210;2023-09-19T09:01:31;5.60;;;3.17;;
45684;SDS011;46836;48.388;16.210;2023-09-19T09:03:59;2.73;;;2.47;;
45684;SDS011;46836;48.388;16.210;2023-09-19T09:06:29;4.50;;;2.53;;
45684;SDS011;46836;48.388;16.210;2023-09-19T09:08:59;7.90;;;2.43;;
45684;SDS011;46836;48.388;16.210;2023-09-19T09:11:27;4.33;;;2.00;;
45684;SDS011;46836;48.388;16.210;2023-09-19T09:13:54;4.53;;;2.50;;
45684;SDS011;46836;48.388;16.210;2023-09-19T09:16:22;2.77;;;1.93;;
45684;SDS011;46836;48.388;16.210;2023-09-19T09:18:53;3.83;;;2.43;;
45684;SDS011;46836;48.388;16.210;2023-09-19T09:21:21;3.10;;;2.47;;
45684;SDS011;46836;48.388;16.210;2023-09-19T09:23:51;3.40;;;2.73;;
45684;SDS011;46836;48.388;16.210;2023-09-19T09:26:40;2.73;;;2.40;;
45684;SDS011;46836;48.388;16.210;2023-09-19T09:29:11;4.20;;;2.40;;
45684;SDS011;46836;48.388;16.210;2023-09-19T09:31:45;3.80;;;2.63;;
45684;SDS011;46836;48.388;16.210;2023-09-19T09:34:12;6.10;;;3.20;;
45684;SDS011;46836;48.388;16.210;2023-09-19T09:36:40;3.83;;;2.43;;
45684;SDS011;46836;48.388;16.210;2023-09-19T09:39:08;4.70;;;2.37;;
45684;SDS011;46836;48.388;16.210;2023-09-19T09:41:45;5.90;;;2.70;;
45684;SDS011;46836;48.388;16.210;2023-09-19T09:44:13;4.57;;;2.80;;
45684;SDS011;46836;48.388;16.210;2023-09-19T09:46:42;3.20;;;2.50;;
45684;SDS011;46836;48.388;16.210;2023-09-19T09:49:24;2.63;;;2.37;;
45684;SDS011;46836;48.388;16.210;2023-09-19T09:52:04;2.63;;;2.10;;
45684;SDS011;46836;48.388;16.210;2023-09-19T09:55:02;3.37;;;2.33;;
45684;SDS011;46836;48.388;16.210;2023-09-19T09:57:34;2.73;;;2.53;;
45684;SDS011;46836;48.388;16.210;2023-09-19T10:00:02;3.10;;;2.63;;
45684;SDS011;46836;48.388;16.210;2023-09-19T10:02:39;3.70;;;2.43;;
45684;SDS011;46836;48.388;16.210;2023-09-19T10:05:18;3.07;;;2.37;;
45684;SDS011;46836;48.388;16.210;2023-09-19T10:07:48;3.03;;;2.60;;
45684;SDS011;46836;48.388;16.210;2023-09-19T10:10:32;3.30;;;2.17;;
45684;SDS011;46836;48.388;16.210;2023-09-19T10:13:10;6.70;;;2.77;;
45684;SDS011;46836;48.388;16.210;2023-09-19T10:15:46;2.17;;;2.00;;
45684;SDS011;46836;48.388;16.210;2023-09-19T10:18:22;3.93;;;2.20;;
45684;SDS011;46836;48.388;16.210;2023-09-19T10:20:50;3.43;;;2.53;;
45684;SDS011;46836;48.388;16.210;2023-09-19T10:23:19;2.53;;;2.20;;
45684;SDS011;46836;48.388;16.210;2023-09-19T10:25:52;1.90;;;1.70;;
45684;SDS011;46836;48.388;16.210;2023-09-19T10:28:21;3.00;;;2.07;;
45684;SDS011;46836;48.388;16.210;2023-09-19T10:30:49;3.00;;;1.90;;
45684;SDS011;46836;48.388;16.210;2023-09-19T10:33:18;2.40;;;2.20;;
45684;SDS011;46836;48.388;16.210;2023-09-19T10:35:49;2.50;;;2.17;;
45684;SDS011;46836;48.388;16.210;2023-09-19T10:38:18;3.80;;;2.67;;
45684;SDS011;46836;48.388;16.210;2023-09-19T10:40:49;4.40;;;2.60;;
45684;SDS011;46836;48.388;16.210;2023-09-19T10:43:19;2.40;;;2.20;;
45684;SDS011;46836;48.388;16.210;2023-09-19T10:45:48;3.27;;;2.40;;
45684;SDS011;46836;48.388;16.210;2023-09-19T10:48:19;5.10;;;2.10;;
45684;SDS011;46836;48.388;16.210;2023-09-19T10:50:55;8.33;;;2.30;;
45684;SDS011;46836;48.388;16.210;2023-09-19T10:53:53;2.90;;;2.07;;
45684;SDS011;46836;48.388;16.210;2023-09-19T10:56:34;2.60;;;2.23;;
45684;SDS011;46836;48.388;16.210;2023-09-19T10:59:14;5.83;;;2.27;;
45684;SDS011;46836;48.388;16.210;2023-09-19T11:01:43;2.17;;;1.97;;
45684;SDS011;46836;48.388;16.210;2023-09-19T11:04:22;3.80;;;2.03;;
45684;SDS011;46836;48.388;16.210;2023-09-19T11:07:08;2.63;;;2.23;;
45684;SDS011;46836;48.388;16.210;2023-09-19T11:15:01;3.67;;;2.00;;
45684;SDS011;46836;48.388;16.210;2023-09-19T11:17:34;2.83;;;2.63;;
45684;SDS011;46836;48.388;16.210;2023-09-19T11:30:49;3.13;;;2.23;;
45684;SDS011;46836;48.388;16.210;2023-09-19T11:33:24;4.13;;;3.30;;
45684;SDS011;46836;48.388;16.210;2023-09-19T11:43:48;7.10;;;2.73;;
45684;SDS011;46836;48.388;16.210;2023-09-19T11:46:22;2.13;;;1.93;;
45684;SDS011;46836;48.388;16.210;2023-09-19T11:48:53;2.07;;;1.63;;
45684;SDS011;46836;48.388;16.210;2023-09-19T11:51:22;2.90;;;1.87;;
45684;SDS011;46836;48.388;16.210;2023-09-19T11:53:55;2.97;;;1.90;;
45684;SDS011;46836;48.388;16.210;2023-09-19T11:56:26;5.63;;;1.80;;
45684;SDS011;46836;48.388;16.210;2023-09-19T11:58:55;2.27;;;1.87;;
45684;SDS011;46836;48.388;16.210;2023-09-19T12:01:26;3.60;;;2.00;;
45684;SDS011;46836;48.388;16.210;2023-09-19T12:03:59;2.80;;;1.90;;
45684;SDS011;46836;48.388;16.210;2023-09-19T12:06:29;3.83;;;1.93;;
45684;SDS011;46836;48.388;16.210;2023-09-19T12:08:59;2.50;;;1.97;;
45684;SDS011;46836;48.388;16.210;2023-09-19T12:11:28;6.47;;;2.40;;
45684;SDS011;46836;48.388;16.210;2023-09-19T12:14:01;2.33;;;1.70;;
45684;SDS011;46836;48.388;16.210;2023-09-19T12:16:28;4.03;;;1.97;;
45684;SDS011;46836;48.388;16.210;2023-09-19T12:18:57;2.20;;;2.00;;
45684;SDS011;46836;48.388;16.210;2023-09-19T12:21:43;2.33;;;1.80;;
45684;SDS011;46836;48.388;16.210;2023-09-19T12:24:13;3.37;;;1.83;;
45684;SDS011;46836;48.388;16.210;2023-09-19T12:26:43;3.37;;;1.63;;
45684;SDS011;46836;48.388;16.210;2023-09-19T12:29:14;1.80;;;1.50;;
45684;SDS011;46836;48.388;16.210;2023-09-19T12:31:53;7.23;;;2.57;;
45684;SDS011;46836;48.388;16.210;2023-09-19T12:34:25;25.60;;;7.60;;
45684;SDS011;46836;48.388;16.210;2023-09-19T12:40:04;10.73;;;2.97;;
45684;SDS011;46836;48.388;16.210;2023-09-19T12:42:44;5.13;;;2.33;;
45684;SDS011;46836;48.388;16.210;2023-09-19T12:45:13;2.77;;;1.67;;
45684;SDS011;46836;48.388;16.210;2023-09-19T12:51:00;4.90;;;1.83;;
45684;SDS011;46836;48.388;16.210;2023-09-19T12:53:35;3.63;;;1.90;;
45684;SDS011;46836;48.388;16.210;2023-09-19T12:56:12;4.67;;;2.00;;
45684;SDS011;46836;48.388;16.210;2023-09-19T12:58:52;5.50;;;2.70;;
45684;SDS011;46836;48.388;16.210;2023-09-19T13:01:24;7.27;;;3.23;;
45684;SDS011;46836;48.388;16.210;2023-09-19T13:06:49;4.03;;;2.47;;
45684;SDS011;46836;48.388;16.210;2023-09-19T13:09:19;3.90;;;2.50;;
45684;SDS011;46836;48.388;16.210;2023-09-19T13:11:48;4.73;;;2.80;;
45684;SDS011;46836;48.388;16.210;2023-09-19T13:19:34;4.20;;;2.90;;
45684;SDS011;46836;48.388;16.210;2023-09-19T13:22:02;3.30;;;2.30;;
45684;SDS011;46836;48.388;16.210;2023-09-19T13:24:29;3.90;;;2.20;;
45684;SDS011;46836;48.388;16.210;2023-09-19T13:26:57;6.13;;;2.63;;
45684;SDS011;46836;48.388;16.210;2023-09-19T13:29:26;5.97;;;3.20;;
45684;SDS011;46836;48.388;16.210;2023-09-19T13:31:55;9.47;;;3.13;;
45684;SDS011;46836;48.388;16.210;2023-09-19T13:34:22;6.60;;;2.83;;
45684;SDS011;46836;48.388;16.210;2023-09-19T13:36:49;5.93;;;3.43;;
45684;SDS011;46836;48.388;16.210;2023-09-19T13:39:17;3.20;;;2.50;;
45684;SDS011;46836;48.388;16.210;2023-09-19T13:41:44;3.33;;;2.17;;
45684;SDS011;46836;48.388;16.210;2023-09-19T13:44:13;5.50;;;2.50;;
45684;SDS011;46836;48.388;16.210;2023-09-19T13:46:42;4.43;;;1.97;;
45684;SDS011;46836;48.388;16.210;2023-09-19T13:49:13;3.23;;;2.20;;
45684;SDS011;46836;48.388;16.210;2023-09-19T13:51:41;4.77;;;2.20;;
45684;SDS011;46836;48.388;16.210;2023-09-19T13:54:11;3.17;;;1.97;;
45684;SDS011;46836;48.388;16.210;2023-09-19T13:56:39;5.13;;;2.40;;
45684;SDS011;46836;48.388;16.210;2023-09-19T13:59:06;4.03;;;1.80;;
45684;SDS011;46836;48.388;16.210;2023-09-19T14:01:33;3.20;;;1.90;;
45684;SDS011;46836;48.388;16.210;2023-09-19T14:04:00;4.30;;;1.90;;
45684;SDS011;46836;48.388;16.210;2023-09-19T14:06:29;4.20;;;2.27;;
45684;SDS011;46836;48.388;16.210;2023-09-19T14:08:56;2.30;;;2.10;;
45684;SDS011;46836;48.388;16.210;2023-09-19T14:11:23;4.37;;;1.90;;
45684;SDS011;46836;48.388;16.210;2023-09-19T14:13:50;2.37;;;2.03;;
45684;SDS011;46836;48.388;16.210;2023-09-19T14:16:21;2.43;;;1.90;;
45684;SDS011;46836;48.388;16.210;2023-09-19T14:18:51;1.80;;;1.50;;
45684;SDS011;46836;48.388;16.210;2023-09-19T14:21:18;2.53;;;1.80;;
45684;SDS011;46836;48.388;16.210;2023-09-19T14:23:46;3.07;;;1.90;;
45684;SDS011;46836;48.388;16.210;2023-09-19T14:26:13;1.60;;;1.50;;
45684;SDS011;46836;48.388;16.210;2023-09-19T14:28:40;4.97;;;2.13;;
45684;SDS011;46836;48.388;16.210;2023-09-19T14:31:09;2.93;;;2.10;;
45684;SDS011;46836;48.388;16.210;2023-09-19T14:33:37;5.00;;;1.70;;
45684;SDS011;46836;48.388;16.210;2023-09-19T14:36:05;2.47;;;2.10;;
45684;SDS011;46836;48.388;16.210;2023-09-19T14:38:36;2.13;;;1.70;;
45684;SDS011;46836;48.388;16.210;2023-09-19T14:41:05;2.27;;;2.07;;
45684;SDS011;46836;48.388;16.210;2023-09-19T14:43:33;2.40;;;1.80;;
45684;SDS011;46836;48.388;16.210;2023-09-19T14:46:03;4.20;;;2.00;;
45684;SDS011;46836;48.388;16.210;2023-09-19T14:48:37;1.60;;;1.47;;
45684;SDS011;46836;48.388;16.210;2023-09-19T14:51:05;2.10;;;1.23;;
45684;SDS011;46836;48.388;16.210;2023-09-19T14:53:35;2.00;;;1.60;;
45684;SDS011;46836;48.388;16.210;2023-09-19T14:56:09;2.90;;;1.40;;
45684;SDS011;46836;48.388;16.210;2023-09-19T14:58:38;1.50;;;1.40;;
45684;SDS011;46836;48.388;16.210;2023-09-19T15:01:09;1.40;;;1.13;;
45684;SDS011;46836;48.388;16.210;2023-09-19T15:03:39;5.87;;;1.67;;
45684;SDS011;46836;48.388;16.210;2023-09-19T15:06:09;3.07;;;1.90;;
45684;SDS011;46836;48.388;16.210;2023-09-19T15:08:47;2.80;;;1.90;;
45684;SDS011;46836;48.388;16.210;2023-09-19T15:11:17;1.97;;;1.50;;
45684;SDS011;46836;48.388;16.210;2023-09-19T15:13:45;1.80;;;1.40;;
45684;SDS011;46836;48.388;16.210;2023-09-19T15:16:13;1.60;;;1.43;;
45684;SDS011;46836;48.388;16.210;2023-09-19T15:18:41;1.63;;;1.30;;
45684;SDS011;46836;48.388;16.210;2023-09-19T15:21:14;2.10;;;1.63;;
45684;SDS011;46836;48.388;16.210;2023-09-19T15:23:43;2.90;;;1.60;;
45684;SDS011;46836;48.388;16.210;2023-09-19T15:26:14;1.87;;;1.47;;
45684;SDS011;46836;48.388;16.210;2023-09-19T15:28:47;3.13;;;1.20;;
45684;SDS011;46836;48.388;16.210;2023-09-19T15:31:16;1.50;;;1.40;;
45684;SDS011;46836;48.388;16.210;2023-09-19T15:33:44;1.80;;;1.40;;
45684;SDS011;46836;48.388;16.210;2023-09-19T15:36:12;1.73;;;1.20;;
45684;SDS011;46836;48.388;16.210;2023-09-19T15:39:02;1.70;;;1.30;;
45684;SDS011;46836;48.388;16.210;2023-09-19T15:41:38;2.37;;;1.33;;
45684;SDS011;46836;48.388;16.210;2023-09-19T15:44:15;5.23;;;1.37;;
45684;SDS011;46836;48.388;16.210;2023-09-19T15:46:45;2.87;;;1.40;;